sensor_id;sensor_type;location;lat;lon;timestamp;temperature;humidity
5280;DHT22;2663;53.588;10.010;2022-08-01T00:00:00;19.50;99.90
5280;DHT22;2663;53.588;10.010;2022-08-01T00:02:28;19.50;99.90
5280;DHT22;2663;53.588;10.010;2022-08-01T00:04:55;19.50;99.90
5280;DHT22;2663;53.588;10.010;2022-08-01T00:07:21;19.60;99.90
5280;DHT22;2663;53.588;10.010;2022-08-01T00:09:48;18.80;99.90
5280;DHT22;2663;53.588;10.010;2022-08-01T00:12:15;19.60;99.90
5280;DHT22;2663;53.588;10.010;2022-08-01T00:14:42;19.50;99.90
5280;DHT22;2663;53.588;10.010;2022-08-01T00:17:08;19.50;99.90
5280;DHT22;2663;53.588;10.010;2022-08-01T00:19:35;19.60;99.90
5280;DHT22;2663;53.588;10.010;2022-08-01T00:22:02;19.60;99.90
5280;DHT22;2663;53.588;10.010;2022-08-01T00:24:29;19.60;99.90
5280;DHT22;2663;53.588;10.010;2022-08-01T00:26:55;19.60;99.90
5280;DHT22;2663;53.588;10.010;2022-08-01T00:29:22;19.60;99.90
5280;DHT22;2663;53.588;10.010;2022-08-01T00:32:09;19.60;99.90
5280;DHT22;2663;53.588;10.010;2022-08-01T00:34:35;19.60;99.90
5280;DHT22;2663;53.588;10.010;2022-08-01T00:37:02;19.70;99.90
5280;DHT22;2663;53.588;10.010;2022-08-01T00:39:29;19.60;99.90
5280;DHT22;2663;53.588;10.010;2022-08-01T00:41:56;19.60;99.90
5280;DHT22;2663;53.588;10.010;2022-08-01T00:44:26;19.60;99.90
5280;DHT22;2663;53.588;10.010;2022-08-01T00:46:52;19.50;99.90
5280;DHT22;2663;53.588;10.010;2022-08-01T00:49:19;19.50;99.90
5280;DHT22;2663;53.588;10.010;2022-08-01T00:51:46;19.50;99.90
5280;DHT22;2663;53.588;10.010;2022-08-01T00:54:13;19.50;99.90
5280;DHT22;2663;53.588;10.010;2022-08-01T00:56:42;19.50;99.90
5280;DHT22;2663;53.588;10.010;2022-08-01T00:59:11;19.40;99.90
5280;DHT22;2663;53.588;10.010;2022-08-01T01:01:40;19.50;99.90
5280;DHT22;2663;53.588;10.010;2022-08-01T01:04:12;19.50;99.90
5280;DHT22;2663;53.588;10.010;2022-08-01T01:12:51;19.50;99.90
5280;DHT22;2663;53.588;10.010;2022-08-01T01:18:12;19.50;99.90
5280;DHT22;2663;53.588;10.010;2022-08-01T01:20:42;19.50;99.90
5280;DHT22;2663;53.588;10.010;2022-08-01T01:23:44;19.40;99.90
5280;DHT22;2663;53.588;10.010;2022-08-01T01:26:36;19.40;99.90
5280;DHT22;2663;53.588;10.010;2022-08-01T01:31:42;19.40;99.90
5280;DHT22;2663;53.588;10.010;2022-08-01T01:34:11;19.40;99.90
5280;DHT22;2663;53.588;10.010;2022-08-01T01:36:39;19.50;99.90
5280;DHT22;2663;53.588;10.010;2022-08-01T01:39:07;19.50;99.90
5280;DHT22;2663;53.588;10.010;2022-08-01T01:41:35;19.50;99.90
5280;DHT22;2663;53.588;10.010;2022-08-01T01:44:04;19.40;99.90
5280;DHT22;2663;53.588;10.010;2022-08-01T01:46:32;19.40;99.90
5280;DHT22;2663;53.588;10.010;2022-08-01T01:48:59;19.40;99.90
5280;DHT22;2663;53.588;10.010;2022-08-01T01:51:27;20.10;99.90
5280;DHT22;2663;53.588;10.010;2022-08-01T01:53:55;19.40;99.90
5280;DHT22;2663;53.588;10.010;2022-08-01T01:56:24;19.40;99.90
5280;DHT22;2663;53.588;10.010;2022-08-01T01:58:56;19.40;99.90
5280;DHT22;2663;53.588;10.010;2022-08-01T02:01:27;19.30;99.90
5280;DHT22;2663;53.588;10.010;2022-08-01T02:04:16;19.30;99.90
5280;DHT22;2663;53.588;10.010;2022-08-01T02:06:45;19.30;99.90
5280;DHT22;2663;53.588;10.010;2022-08-01T02:09:20;19.30;99.90
5280;DHT22;2663;53.588;10.010;2022-08-01T02:11:49;19.20;99.90
5280;DHT22;2663;53.588;10.010;2022-08-01T02:14:35;19.30;99.90
5280;DHT22;2663;53.588;10.010;2022-08-01T02:17:02;19.20;99.90
5280;DHT22;2663;53.588;10.010;2022-08-01T02:19:30;19.20;99.90
5280;DHT22;2663;53.588;10.010;2022-08-01T02:22:09;19.20;99.90
5280;DHT22;2663;53.588;10.010;2022-08-01T02:24:43;19.20;99.90
5280;DHT22;2663;53.588;10.010;2022-08-01T02:27:25;19.20;99.90
5280;DHT22;2663;53.588;10.010;2022-08-01T02:29:58;19.20;99.90
5280;DHT22;2663;53.588;10.010;2022-08-01T02:32:53;19.20;99.90
5280;DHT22;2663;53.588;10.010;2022-08-01T02:35:27;19.20;99.90
5280;DHT22;2663;53.588;10.010;2022-08-01T02:37:56;19.10;99.90
5280;DHT22;2663;53.588;10.010;2022-08-01T02:40:26;19.20;99.90
5280;DHT22;2663;53.588;10.010;2022-08-01T02:42:54;19.20;99.90
5280;DHT22;2663;53.588;10.010;2022-08-01T02:45:25;19.20;99.90
5280;DHT22;2663;53.588;10.010;2022-08-01T02:47:57;19.20;99.90
5280;DHT22;2663;53.588;10.010;2022-08-01T02:50:26;19.20;99.90
5280;DHT22;2663;53.588;10.010;2022-08-01T02:52:55;19.20;99.90
5280;DHT22;2663;53.588;10.010;2022-08-01T02:55:24;19.20;99.90
5280;DHT22;2663;53.588;10.010;2022-08-01T02:57:52;19.10;99.90
5280;DHT22;2663;53.588;10.010;2022-08-01T03:00:27;19.20;99.90
5280;DHT22;2663;53.588;10.010;2022-08-01T03:02:55;19.10;99.90
5280;DHT22;2663;53.588;10.010;2022-08-01T03:05:24;19.10;99.90
5280;DHT22;2663;53.588;10.010;2022-08-01T03:07:54;19.00;99.90
5280;DHT22;2663;53.588;10.010;2022-08-01T03:10:22;19.10;99.90
5280;DHT22;2663;53.588;10.010;2022-08-01T03:12:49;19.10;99.90
5280;DHT22;2663;53.588;10.010;2022-08-01T03:15:17;19.10;99.90
5280;DHT22;2663;53.588;10.010;2022-08-01T03:17:47;19.20;99.90
5280;DHT22;2663;53.588;10.010;2022-08-01T03:20:18;19.20;99.90
5280;DHT22;2663;53.588;10.010;2022-08-01T03:22:46;19.20;99.90
5280;DHT22;2663;53.588;10.010;2022-08-01T03:25:15;19.20;99.90
5280;DHT22;2663;53.588;10.010;2022-08-01T03:27:43;19.10;99.90
5280;DHT22;2663;53.588;10.010;2022-08-01T03:30:12;19.10;99.90
5280;DHT22;2663;53.588;10.010;2022-08-01T03:32:40;19.10;99.90
5280;DHT22;2663;53.588;10.010;2022-08-01T03:35:07;19.10;99.90
5280;DHT22;2663;53.588;10.010;2022-08-01T03:37:42;19.10;99.90
5280;DHT22;2663;53.588;10.010;2022-08-01T03:40:38;19.10;99.90
5280;DHT22;2663;53.588;10.010;2022-08-01T03:43:12;19.20;99.90
5280;DHT22;2663;53.588;10.010;2022-08-01T03:45:46;19.20;99.90
5280;DHT22;2663;53.588;10.010;2022-08-01T03:48:17;19.20;99.90
5280;DHT22;2663;53.588;10.010;2022-08-01T03:50:50;19.10;99.90
5280;DHT22;2663;53.588;10.010;2022-08-01T03:53:22;19.20;99.90
5280;DHT22;2663;53.588;10.010;2022-08-01T03:55:49;19.20;99.90
5280;DHT22;2663;53.588;10.010;2022-08-01T03:58:17;19.20;99.90
5280;DHT22;2663;53.588;10.010;2022-08-01T04:00:44;19.20;99.90
5280;DHT22;2663;53.588;10.010;2022-08-01T04:03:12;19.20;99.90
5280;DHT22;2663;53.588;10.010;2022-08-01T04:05:42;19.20;99.90
5280;DHT22;2663;53.588;10.010;2022-08-01T04:08:09;19.20;99.90
5280;DHT22;2663;53.588;10.010;2022-08-01T04:10:37;19.20;99.90
5280;DHT22;2663;53.588;10.010;2022-08-01T04:13:04;19.20;99.90
5280;DHT22;2663;53.588;10.010;2022-08-01T04:15:30;19.20;99.90
5280;DHT22;2663;53.588;10.010;2022-08-01T04:17:57;19.10;99.90
5280;DHT22;2663;53.588;10.010;2022-08-01T04:20:24;19.20;99.90
5280;DHT22;2663;53.588;10.010;2022-08-01T04:22:51;19.20;99.90
5280;DHT22;2663;53.588;10.010;2022-08-01T04:25:33;19.10;99.90
5280;DHT22;2663;53.588;10.010;2022-08-01T04:28:01;19.20;99.90
5280;DHT22;2663;53.588;10.010;2022-08-01T04:30:34;19.20;99.90
5280;DHT22;2663;53.588;10.010;2022-08-01T04:33:04;19.20;99.90
5280;DHT22;2663;53.588;10.010;2022-08-01T04:35:33;19.20;99.90
5280;DHT22;2663;53.588;10.010;2022-08-01T04:38:22;19.30;99.90
5280;DHT22;2663;53.588;10.010;2022-08-01T04:40:54;19.30;99.90
5280;DHT22;2663;53.588;10.010;2022-08-01T04:43:21;19.20;99.90
5280;DHT22;2663;53.588;10.010;2022-08-01T04:45:48;19.20;99.90
5280;DHT22;2663;53.588;10.010;2022-08-01T04:48:17;19.20;99.90
5280;DHT22;2663;53.588;10.010;2022-08-01T04:50:44;19.20;99.90
5280;DHT22;2663;53.588;10.010;2022-08-01T04:53:15;20.00;99.90
5280;DHT22;2663;53.588;10.010;2022-08-01T04:55:46;19.20;99.90
5280;DHT22;2663;53.588;10.010;2022-08-01T04:58:15;19.10;99.90
5280;DHT22;2663;53.588;10.010;2022-08-01T05:00:45;19.10;99.90
5280;DHT22;2663;53.588;10.010;2022-08-01T05:03:12;19.10;99.90
5280;DHT22;2663;53.588;10.010;2022-08-01T05:05:39;19.10;99.90
5280;DHT22;2663;53.588;10.010;2022-08-01T05:08:05;19.10;99.90
5280;DHT22;2663;53.588;10.010;2022-08-01T05:10:33;19.00;99.90
5280;DHT22;2663;53.588;10.010;2022-08-01T05:13:00;19.10;99.90
5280;DHT22;2663;53.588;10.010;2022-08-01T05:15:26;19.10;99.90
5280;DHT22;2663;53.588;10.010;2022-08-01T05:17:54;19.10;99.90
5280;DHT22;2663;53.588;10.010;2022-08-01T05:20:20;19.10;99.90
5280;DHT22;2663;53.588;10.010;2022-08-01T05:22:47;19.00;99.90
5280;DHT22;2663;53.588;10.010;2022-08-01T05:25:14;18.90;99.90
5280;DHT22;2663;53.588;10.010;2022-08-01T05:27:46;18.90;99.90
5280;DHT22;2663;53.588;10.010;2022-08-01T05:30:16;18.90;99.90
5280;DHT22;2663;53.588;10.010;2022-08-01T05:32:43;18.90;99.90
5280;DHT22;2663;53.588;10.010;2022-08-01T05:35:10;18.90;99.90
5280;DHT22;2663;53.588;10.010;2022-08-01T05:37:37;18.90;99.90
5280;DHT22;2663;53.588;10.010;2022-08-01T05:40:04;18.90;99.90
5280;DHT22;2663;53.588;10.010;2022-08-01T05:42:31;18.90;99.90
5280;DHT22;2663;53.588;10.010;2022-08-01T05:44:58;18.90;99.90
5280;DHT22;2663;53.588;10.010;2022-08-01T05:47:25;18.80;99.90
5280;DHT22;2663;53.588;10.010;2022-08-01T05:49:51;18.90;99.90
5280;DHT22;2663;53.588;10.010;2022-08-01T05:52:18;18.90;99.90
5280;DHT22;2663;53.588;10.010;2022-08-01T05:54:45;19.00;99.90
5280;DHT22;2663;53.588;10.010;2022-08-01T05:57:11;19.00;99.90
5280;DHT22;2663;53.588;10.010;2022-08-01T05:59:40;19.00;99.90
5280;DHT22;2663;53.588;10.010;2022-08-01T06:02:07;19.00;99.90
5280;DHT22;2663;53.588;10.010;2022-08-01T06:04:35;18.90;99.90
5280;DHT22;2663;53.588;10.010;2022-08-01T06:07:01;18.90;99.90
5280;DHT22;2663;53.588;10.010;2022-08-01T06:09:28;18.80;99.90
5280;DHT22;2663;53.588;10.010;2022-08-01T06:11:57;18.80;99.90
5280;DHT22;2663;53.588;10.010;2022-08-01T06:14:24;18.70;99.90
5280;DHT22;2663;53.588;10.010;2022-08-01T06:16:50;18.70;99.90
5280;DHT22;2663;53.588;10.010;2022-08-01T06:19:17;18.80;99.90
5280;DHT22;2663;53.588;10.010;2022-08-01T06:21:43;18.80;99.90
5280;DHT22;2663;53.588;10.010;2022-08-01T06:24:10;18.80;99.90
5280;DHT22;2663;53.588;10.010;2022-08-01T06:26:37;18.80;99.90
5280;DHT22;2663;53.588;10.010;2022-08-01T06:29:03;18.70;99.90
5280;DHT22;2663;53.588;10.010;2022-08-01T06:31:30;18.70;99.90
5280;DHT22;2663;53.588;10.010;2022-08-01T06:33:59;18.80;99.90
5280;DHT22;2663;53.588;10.010;2022-08-01T06:36:26;18.90;99.90
5280;DHT22;2663;53.588;10.010;2022-08-01T06:38:53;18.90;99.90
5280;DHT22;2663;53.588;10.010;2022-08-01T06:41:20;18.80;99.90
5280;DHT22;2663;53.588;10.010;2022-08-01T06:43:46;18.80;99.90
5280;DHT22;2663;53.588;10.010;2022-08-01T06:46:13;18.70;99.90
5280;DHT22;2663;53.588;10.010;2022-08-01T06:48:40;18.60;99.90
5280;DHT22;2663;53.588;10.010;2022-08-01T06:51:06;18.60;99.90
5280;DHT22;2663;53.588;10.010;2022-08-01T06:53:39;18.50;99.90
5280;DHT22;2663;53.588;10.010;2022-08-01T06:56:06;18.50;99.90
5280;DHT22;2663;53.588;10.010;2022-08-01T06:58:35;18.50;99.90
5280;DHT22;2663;53.588;10.010;2022-08-01T07:01:03;18.50;99.90
5280;DHT22;2663;53.588;10.010;2022-08-01T07:03:33;18.40;99.90
5280;DHT22;2663;53.588;10.010;2022-08-01T07:06:24;18.50;99.90
5280;DHT22;2663;53.588;10.010;2022-08-01T07:08:52;18.50;99.90
5280;DHT22;2663;53.588;10.010;2022-08-01T07:11:19;18.50;99.90
5280;DHT22;2663;53.588;10.010;2022-08-01T07:13:46;18.60;99.90
5280;DHT22;2663;53.588;10.010;2022-08-01T07:16:14;18.60;99.90
5280;DHT22;2663;53.588;10.010;2022-08-01T07:18:41;18.60;99.90
5280;DHT22;2663;53.588;10.010;2022-08-01T07:21:08;18.60;99.90
5280;DHT22;2663;53.588;10.010;2022-08-01T07:23:55;18.70;99.90
5280;DHT22;2663;53.588;10.010;2022-08-01T07:26:22;18.60;99.90
5280;DHT22;2663;53.588;10.010;2022-08-01T07:28:48;18.50;99.90
5280;DHT22;2663;53.588;10.010;2022-08-01T07:31:15;18.60;99.90
5280;DHT22;2663;53.588;10.010;2022-08-01T07:33:42;18.70;99.90
5280;DHT22;2663;53.588;10.010;2022-08-01T07:36:16;18.60;99.90
5280;DHT22;2663;53.588;10.010;2022-08-01T07:38:43;18.60;99.90
5280;DHT22;2663;53.588;10.010;2022-08-01T07:41:10;18.60;99.90
5280;DHT22;2663;53.588;10.010;2022-08-01T07:43:37;18.70;99.90
5280;DHT22;2663;53.588;10.010;2022-08-01T07:46:04;18.60;99.90
5280;DHT22;2663;53.588;10.010;2022-08-01T07:48:31;18.40;99.90
5280;DHT22;2663;53.588;10.010;2022-08-01T07:50:57;18.30;99.90
5280;DHT22;2663;53.588;10.010;2022-08-01T07:53:24;18.30;99.90
5280;DHT22;2663;53.588;10.010;2022-08-01T07:55:51;18.40;99.90
5280;DHT22;2663;53.588;10.010;2022-08-01T07:58:18;18.60;99.90
5280;DHT22;2663;53.588;10.010;2022-08-01T08:00:44;18.60;99.90
5280;DHT22;2663;53.588;10.010;2022-08-01T08:03:11;18.80;99.90
5280;DHT22;2663;53.588;10.010;2022-08-01T08:05:38;18.90;99.90
5280;DHT22;2663;53.588;10.010;2022-08-01T08:08:25;19.00;99.90
5280;DHT22;2663;53.588;10.010;2022-08-01T08:10:51;19.10;99.90
5280;DHT22;2663;53.588;10.010;2022-08-01T08:13:18;18.90;99.90
5280;DHT22;2663;53.588;10.010;2022-08-01T08:15:46;19.00;99.90
5280;DHT22;2663;53.588;10.010;2022-08-01T08:18:14;18.90;99.90
5280;DHT22;2663;53.588;10.010;2022-08-01T08:20:41;19.00;99.90
5280;DHT22;2663;53.588;10.010;2022-08-01T08:23:07;19.00;99.90
5280;DHT22;2663;53.588;10.010;2022-08-01T08:26:10;18.90;99.90
5280;DHT22;2663;53.588;10.010;2022-08-01T08:28:37;18.80;99.90
5280;DHT22;2663;53.588;10.010;2022-08-01T08:31:06;18.90;99.90
5280;DHT22;2663;53.588;10.010;2022-08-01T08:33:32;19.00;99.90
5280;DHT22;2663;53.588;10.010;2022-08-01T08:35:59;19.20;99.90
5280;DHT22;2663;53.588;10.010;2022-08-01T08:38:26;19.20;99.90
5280;DHT22;2663;53.588;10.010;2022-08-01T08:40:56;19.10;99.90
5280;DHT22;2663;53.588;10.010;2022-08-01T08:43:24;19.00;99.90
5280;DHT22;2663;53.588;10.010;2022-08-01T08:45:52;19.10;99.90
5280;DHT22;2663;53.588;10.010;2022-08-01T08:48:26;19.20;99.90
5280;DHT22;2663;53.588;10.010;2022-08-01T08:50:53;19.20;99.90
5280;DHT22;2663;53.588;10.010;2022-08-01T08:53:21;19.20;99.90
5280;DHT22;2663;53.588;10.010;2022-08-01T08:55:48;19.30;99.90
5280;DHT22;2663;53.588;10.010;2022-08-01T08:58:22;19.30;99.90
5280;DHT22;2663;53.588;10.010;2022-08-01T09:00:57;19.60;99.90
5280;DHT22;2663;53.588;10.010;2022-08-01T09:03:24;19.70;99.90
5280;DHT22;2663;53.588;10.010;2022-08-01T09:05:51;19.80;99.90
5280;DHT22;2663;53.588;10.010;2022-08-01T09:08:18;19.70;99.90
5280;DHT22;2663;53.588;10.010;2022-08-01T09:10:45;19.70;99.90
5280;DHT22;2663;53.588;10.010;2022-08-01T09:13:13;19.70;99.90
5280;DHT22;2663;53.588;10.010;2022-08-01T09:15:44;19.80;98.90
5280;DHT22;2663;53.588;10.010;2022-08-01T09:18:34;19.90;98.00
5280;DHT22;2663;53.588;10.010;2022-08-01T09:23:41;20.30;97.10
5280;DHT22;2663;53.588;10.010;2022-08-01T09:26:28;20.00;96.80
5280;DHT22;2663;53.588;10.010;2022-08-01T09:28:56;20.00;96.90
5280;DHT22;2663;53.588;10.010;2022-08-01T09:31:27;19.90;96.20
5280;DHT22;2663;53.588;10.010;2022-08-01T09:34:04;19.90;95.80
5280;DHT22;2663;53.588;10.010;2022-08-01T09:39:37;18.90;95.80
5280;DHT22;2663;53.588;10.010;2022-08-01T09:42:23;20.00;96.10
5280;DHT22;2663;53.588;10.010;2022-08-01T09:44:55;20.10;96.10
5280;DHT22;2663;53.588;10.010;2022-08-01T09:47:21;20.20;96.20
5280;DHT22;2663;53.588;10.010;2022-08-01T09:49:55;20.20;95.80
5280;DHT22;2663;53.588;10.010;2022-08-01T09:52:26;20.40;96.00
5280;DHT22;2663;53.588;10.010;2022-08-01T09:54:59;20.50;96.20
5280;DHT22;2663;53.588;10.010;2022-08-01T09:57:27;20.50;95.80
5280;DHT22;2663;53.588;10.010;2022-08-01T09:59:56;20.50;96.10
5280;DHT22;2663;53.588;10.010;2022-08-01T10:02:38;20.60;96.20
5280;DHT22;2663;53.588;10.010;2022-08-01T10:05:08;20.80;96.10
5280;DHT22;2663;53.588;10.010;2022-08-01T10:07:55;20.80;96.00
5280;DHT22;2663;53.588;10.010;2022-08-01T10:10:23;21.00;96.00
5280;DHT22;2663;53.588;10.010;2022-08-01T10:12:58;21.20;96.10
5280;DHT22;2663;53.588;10.010;2022-08-01T10:15:26;21.20;95.80
5280;DHT22;2663;53.588;10.010;2022-08-01T10:18:06;21.20;95.90
5280;DHT22;2663;53.588;10.010;2022-08-01T10:20:47;21.10;96.10
5280;DHT22;2663;53.588;10.010;2022-08-01T10:23:15;20.80;95.30
5280;DHT22;2663;53.588;10.010;2022-08-01T10:25:43;20.60;95.10
5280;DHT22;2663;53.588;10.010;2022-08-01T10:28:17;20.60;95.40
5280;DHT22;2663;53.588;10.010;2022-08-01T10:30:47;20.50;95.90
5280;DHT22;2663;53.588;10.010;2022-08-01T10:33:15;20.70;95.90
5280;DHT22;2663;53.588;10.010;2022-08-01T10:36:04;20.90;96.00
5280;DHT22;2663;53.588;10.010;2022-08-01T10:38:35;20.90;94.80
5280;DHT22;2663;53.588;10.010;2022-08-01T10:41:04;20.90;94.40
5280;DHT22;2663;53.588;10.010;2022-08-01T10:43:32;21.10;95.10
5280;DHT22;2663;53.588;10.010;2022-08-01T10:46:01;21.10;94.30
5280;DHT22;2663;53.588;10.010;2022-08-01T10:48:41;21.00;93.20
5280;DHT22;2663;53.588;10.010;2022-08-01T10:51:10;21.00;93.30
5280;DHT22;2663;53.588;10.010;2022-08-01T10:53:51;21.10;94.00
5280;DHT22;2663;53.588;10.010;2022-08-01T10:56:21;21.30;94.00
5280;DHT22;2663;53.588;10.010;2022-08-01T10:59:01;21.40;93.40
5280;DHT22;2663;53.588;10.010;2022-08-01T11:01:37;21.30;92.30
5280;DHT22;2663;53.588;10.010;2022-08-01T11:04:11;21.10;93.10
5280;DHT22;2663;53.588;10.010;2022-08-01T11:06:48;21.30;93.40
5280;DHT22;2663;53.588;10.010;2022-08-01T11:09:46;21.50;93.40
5280;DHT22;2663;53.588;10.010;2022-08-01T11:12:18;21.60;92.60
5280;DHT22;2663;53.588;10.010;2022-08-01T11:17:36;21.10;92.30
5280;DHT22;2663;53.588;10.010;2022-08-01T11:23:15;21.50;92.80
5280;DHT22;2663;53.588;10.010;2022-08-01T11:28:32;21.30;91.70
5280;DHT22;2663;53.588;10.010;2022-08-01T11:41:32;21.80;90.90
5280;DHT22;2663;53.588;10.010;2022-08-01T11:49:48;21.30;91.20
5280;DHT22;2663;53.588;10.010;2022-08-01T11:52:29;21.20;90.90
5280;DHT22;2663;53.588;10.010;2022-08-01T11:57:30;21.40;90.30
5280;DHT22;2663;53.588;10.010;2022-08-01T12:00:14;21.50;90.20
5280;DHT22;2663;53.588;10.010;2022-08-01T12:02:44;21.40;90.20
5280;DHT22;2663;53.588;10.010;2022-08-01T12:05:14;21.40;90.70
5280;DHT22;2663;53.588;10.010;2022-08-01T12:07:44;21.60;91.20
5280;DHT22;2663;53.588;10.010;2022-08-01T12:10:15;21.60;91.00
5280;DHT22;2663;53.588;10.010;2022-08-01T12:12:50;21.60;90.60
5280;DHT22;2663;53.588;10.010;2022-08-01T12:15:19;21.80;90.40
5280;DHT22;2663;53.588;10.010;2022-08-01T12:17:56;21.80;89.50
5280;DHT22;2663;53.588;10.010;2022-08-01T12:20:30;21.60;88.30
5280;DHT22;2663;53.588;10.010;2022-08-01T12:22:59;21.60;88.70
5280;DHT22;2663;53.588;10.010;2022-08-01T12:25:26;21.70;88.20
5280;DHT22;2663;53.588;10.010;2022-08-01T12:27:53;21.80;87.40
5280;DHT22;2663;53.588;10.010;2022-08-01T12:30:23;21.70;88.10
5280;DHT22;2663;53.588;10.010;2022-08-01T12:32:52;21.80;88.60
5280;DHT22;2663;53.588;10.010;2022-08-01T12:35:24;21.80;87.50
5280;DHT22;2663;53.588;10.010;2022-08-01T12:37:59;21.90;89.20
5280;DHT22;2663;53.588;10.010;2022-08-01T12:40:32;21.90;89.50
5280;DHT22;2663;53.588;10.010;2022-08-01T12:43:04;22.00;89.50
5280;DHT22;2663;53.588;10.010;2022-08-01T12:45:35;21.90;89.20
5280;DHT22;2663;53.588;10.010;2022-08-01T12:48:07;21.80;88.30
5280;DHT22;2663;53.588;10.010;2022-08-01T12:50:37;21.60;89.50
5280;DHT22;2663;53.588;10.010;2022-08-01T12:53:05;21.30;89.40
5280;DHT22;2663;53.588;10.010;2022-08-01T12:55:32;21.30;90.10
5280;DHT22;2663;53.588;10.010;2022-08-01T12:58:11;22.60;90.10
5280;DHT22;2663;53.588;10.010;2022-08-01T13:00:43;21.40;90.00
5280;DHT22;2663;53.588;10.010;2022-08-01T13:03:13;21.50;89.10
5280;DHT22;2663;53.588;10.010;2022-08-01T13:05:45;21.40;89.40
5280;DHT22;2663;53.588;10.010;2022-08-01T13:08:14;21.30;89.40
5280;DHT22;2663;53.588;10.010;2022-08-01T13:10:43;21.20;88.50
5280;DHT22;2663;53.588;10.010;2022-08-01T13:13:11;21.20;89.00
5280;DHT22;2663;53.588;10.010;2022-08-01T13:16:04;21.30;89.00
5280;DHT22;2663;53.588;10.010;2022-08-01T13:18:33;21.40;88.40
5280;DHT22;2663;53.588;10.010;2022-08-01T13:23:38;21.60;87.80
5280;DHT22;2663;53.588;10.010;2022-08-01T13:29:12;21.70;86.60
5280;DHT22;2663;53.588;10.010;2022-08-01T13:31:40;21.60;86.70
5280;DHT22;2663;53.588;10.010;2022-08-01T13:34:08;21.60;86.50
5280;DHT22;2663;53.588;10.010;2022-08-01T13:36:35;21.40;87.10
5280;DHT22;2663;53.588;10.010;2022-08-01T13:39:03;21.40;88.10
5280;DHT22;2663;53.588;10.010;2022-08-01T13:41:48;21.40;87.30
5280;DHT22;2663;53.588;10.010;2022-08-01T13:44:15;21.40;87.60
5280;DHT22;2663;53.588;10.010;2022-08-01T13:46:43;22.30;88.40
5280;DHT22;2663;53.588;10.010;2022-08-01T13:49:15;21.30;87.00
5280;DHT22;2663;53.588;10.010;2022-08-01T13:51:44;21.20;85.70
5280;DHT22;2663;53.588;10.010;2022-08-01T13:54:12;21.20;84.40
5280;DHT22;2663;53.588;10.010;2022-08-01T13:56:39;21.40;84.80
5280;DHT22;2663;53.588;10.010;2022-08-01T13:59:06;21.40;84.60
5280;DHT22;2663;53.588;10.010;2022-08-01T14:01:33;21.20;85.60
5280;DHT22;2663;53.588;10.010;2022-08-01T14:04:01;21.40;86.00
5280;DHT22;2663;53.588;10.010;2022-08-01T14:06:28;21.60;85.40
5280;DHT22;2663;53.588;10.010;2022-08-01T14:08:56;21.50;85.80
5280;DHT22;2663;53.588;10.010;2022-08-01T14:11:22;21.50;85.70
5280;DHT22;2663;53.588;10.010;2022-08-01T14:13:50;21.80;84.20
5280;DHT22;2663;53.588;10.010;2022-08-01T14:16:17;21.80;84.00
5280;DHT22;2663;53.588;10.010;2022-08-01T14:18:43;21.50;85.40
5280;DHT22;2663;53.588;10.010;2022-08-01T14:21:10;21.50;83.20
5280;DHT22;2663;53.588;10.010;2022-08-01T14:23:37;21.70;83.70
5280;DHT22;2663;53.588;10.010;2022-08-01T14:26:04;21.80;83.10
5280;DHT22;2663;53.588;10.010;2022-08-01T14:28:38;21.90;83.50
5280;DHT22;2663;53.588;10.010;2022-08-01T14:31:05;21.70;81.40
5280;DHT22;2663;53.588;10.010;2022-08-01T14:33:35;21.70;81.90
5280;DHT22;2663;53.588;10.010;2022-08-01T14:36:02;22.10;82.80
5280;DHT22;2663;53.588;10.010;2022-08-01T14:38:49;21.90;83.00
5280;DHT22;2663;53.588;10.010;2022-08-01T14:41:15;22.10;82.60
5280;DHT22;2663;53.588;10.010;2022-08-01T14:43:42;21.90;81.80
5280;DHT22;2663;53.588;10.010;2022-08-01T14:46:09;21.70;83.20
5280;DHT22;2663;53.588;10.010;2022-08-01T14:48:36;21.70;83.40
5280;DHT22;2663;53.588;10.010;2022-08-01T14:51:03;21.80;83.90
5280;DHT22;2663;53.588;10.010;2022-08-01T14:53:30;21.60;85.00
5280;DHT22;2663;53.588;10.010;2022-08-01T14:56:02;21.80;83.80
5280;DHT22;2663;53.588;10.010;2022-08-01T14:58:29;21.80;84.50
5280;DHT22;2663;53.588;10.010;2022-08-01T15:00:56;21.80;84.30
5280;DHT22;2663;53.588;10.010;2022-08-01T15:03:25;21.70;85.50
5280;DHT22;2663;53.588;10.010;2022-08-01T15:05:52;22.10;84.90
5280;DHT22;2663;53.588;10.010;2022-08-01T15:08:18;22.00;86.00
5280;DHT22;2663;53.588;10.010;2022-08-01T15:10:45;21.70;84.40
5280;DHT22;2663;53.588;10.010;2022-08-01T15:13:12;21.80;85.10
5280;DHT22;2663;53.588;10.010;2022-08-01T15:15:39;22.00;84.70
5280;DHT22;2663;53.588;10.010;2022-08-01T15:18:05;21.90;83.70
5280;DHT22;2663;53.588;10.010;2022-08-01T15:20:32;22.10;84.40
5280;DHT22;2663;53.588;10.010;2022-08-01T15:22:59;21.90;84.00
5280;DHT22;2663;53.588;10.010;2022-08-01T15:25:26;21.80;84.20
5280;DHT22;2663;53.588;10.010;2022-08-01T15:28:11;21.80;84.80
5280;DHT22;2663;53.588;10.010;2022-08-01T15:30:38;21.70;84.80
5280;DHT22;2663;53.588;10.010;2022-08-01T15:33:05;21.80;85.00
5280;DHT22;2663;53.588;10.010;2022-08-01T15:35:32;22.00;85.10
5280;DHT22;2663;53.588;10.010;2022-08-01T15:37:59;22.10;84.30
5280;DHT22;2663;53.588;10.010;2022-08-01T15:40:26;22.10;84.60
5280;DHT22;2663;53.588;10.010;2022-08-01T15:42:54;22.20;84.80
5280;DHT22;2663;53.588;10.010;2022-08-01T15:45:22;22.10;85.00
5280;DHT22;2663;53.588;10.010;2022-08-01T15:48:08;22.20;83.70
5280;DHT22;2663;53.588;10.010;2022-08-01T15:50:35;22.20;83.60
5280;DHT22;2663;53.588;10.010;2022-08-01T15:53:05;22.20;82.60
5280;DHT22;2663;53.588;10.010;2022-08-01T15:55:35;22.10;83.40
5280;DHT22;2663;53.588;10.010;2022-08-01T15:58:03;22.40;83.50
5280;DHT22;2663;53.588;10.010;2022-08-01T16:00:31;22.10;84.00
5280;DHT22;2663;53.588;10.010;2022-08-01T16:03:06;22.10;84.20
5280;DHT22;2663;53.588;10.010;2022-08-01T16:05:32;22.30;84.30
5280;DHT22;2663;53.588;10.010;2022-08-01T16:08:09;22.50;83.30
5280;DHT22;2663;53.588;10.010;2022-08-01T16:10:36;22.70;83.20
5280;DHT22;2663;53.588;10.010;2022-08-01T16:13:03;22.90;82.70
5280;DHT22;2663;53.588;10.010;2022-08-01T16:15:34;23.10;81.50
5280;DHT22;2663;53.588;10.010;2022-08-01T16:18:07;23.70;81.20
5280;DHT22;2663;53.588;10.010;2022-08-01T16:20:34;24.40;79.90
5280;DHT22;2663;53.588;10.010;2022-08-01T16:23:04;25.70;76.90
5280;DHT22;2663;53.588;10.010;2022-08-01T16:25:31;25.80;76.60
5280;DHT22;2663;53.588;10.010;2022-08-01T16:27:58;25.50;75.20
5280;DHT22;2663;53.588;10.010;2022-08-01T16:30:24;24.00;76.70
5280;DHT22;2663;53.588;10.010;2022-08-01T16:32:51;23.90;79.70
5280;DHT22;2663;53.588;10.010;2022-08-01T16:35:22;23.10;80.60
5280;DHT22;2663;53.588;10.010;2022-08-01T16:37:51;22.40;81.90
5280;DHT22;2663;53.588;10.010;2022-08-01T16:40:18;21.70;83.20
5280;DHT22;2663;53.588;10.010;2022-08-01T16:42:45;21.90;83.30
5280;DHT22;2663;53.588;10.010;2022-08-01T16:45:12;22.80;82.40
5280;DHT22;2663;53.588;10.010;2022-08-01T16:47:40;22.80;80.90
5280;DHT22;2663;53.588;10.010;2022-08-01T16:50:07;23.00;81.70
5280;DHT22;2663;53.588;10.010;2022-08-01T16:52:35;23.70;80.00